Hovedside
METAR-TAF:

METAR-TAF

Lufthavner :

Molde lufthavn. Årø

Molde, Norge

breddegrad: 62-45N, lengdegrad: 007-16E, høyde over havet: 0 m

Gjeldene værobservasjon

Denne rapporten ble laget for 26 minutter siden, klokken 23:20 UTC
Vind 8 kt fra Nord-nordøst
Temperatur -2°C
Luftfuktighet 86%
Trykk 1027 hPa
Sikt 10 km eller mer

METAR: ENML 112320Z AUTO 02008KT 9999NDV NCD M02/M04 Q1027

Tid: 00:46 (23:46 UTC)

Varsel

Denne rapporten ble laget for 3 timer og 56 minutter siden, klokken 19:50 UTC
Varsel gyldig fra 11. klokken 19 UTC til 11. klokken 22 UTC
Vind 7 kt fra Nord-nordøst
Sikt 10 km eller mer
ingen skyer under 1500 m og ingen bygeskyer

TAF: ENML 111950Z 1119/1122 03007KT CAVOK

Værobservasjoner og værvarsel for over 4000 flyplasser (METAR- og TAF-rapporter).

Tilgjengelige stasjoner er representert av de røde og gule prikkene på kartet.

Hold musepekeren over prikken for å se navnet på stasjonen.

Klikk så for å se værobservasjoner og -varsler.

For å forandre kartet kan du klikke på den grønne knappen med svart kryss for å zoome inn, på den grønne knappen med strek for å zoome ut, eller på de grønne pilene for å se tilstøtende kart.


METAR-TAF: